createdAt,value
2022-08-03T00:01:53.506Z,31.10
2022-08-03T00:04:20.579Z,31.10
2022-08-03T00:06:47.646Z,31.10
2022-08-03T00:09:14.863Z,31.00
2022-08-03T00:11:41.986Z,31.00
2022-08-03T00:14:09.952Z,31.00
2022-08-03T00:16:37.200Z,30.90
2022-08-03T00:19:04.992Z,31.00
2022-08-03T00:21:32.075Z,30.90
2022-08-03T00:23:59.952Z,30.90
2022-08-03T00:26:27.033Z,30.90
2022-08-03T00:28:54.155Z,30.80
2022-08-03T00:31:40.250Z,30.90
2022-08-03T00:34:08.426Z,30.80
2022-08-03T00:36:35.581Z,30.80
2022-08-03T00:39:02.757Z,30.80
2022-08-03T00:41:29.839Z,30.80
2022-08-03T00:43:56.996Z,30.80
2022-08-03T00:46:24.049Z,30.80
2022-08-03T00:48:54.375Z,30.70
2022-08-03T00:51:22.370Z,30.70
2022-08-03T00:53:50.369Z,30.70
2022-08-03T00:56:18.283Z,30.60
2022-08-03T00:58:46.651Z,30.60
2022-08-03T01:01:14.332Z,30.60
2022-08-03T01:03:41.641Z,30.60
2022-08-03T01:06:22.347Z,30.60
2022-08-03T01:09:07.976Z,30.50
2022-08-03T01:11:59.956Z,30.60
2022-08-03T01:14:31.239Z,30.50
2022-08-03T01:17:11.885Z,30.50
2022-08-03T01:20:00.799Z,30.50
2022-08-03T01:23:03.175Z,30.50
2022-08-03T01:25:39.344Z,30.50
2022-08-03T01:28:34.573Z,30.40
2022-08-03T01:31:08.789Z,30.40
2022-08-03T01:33:44.148Z,30.40
2022-08-03T01:36:36.427Z,30.40
2022-08-03T01:39:09.336Z,30.30
2022-08-03T01:41:42.957Z,30.30
2022-08-03T01:44:30.133Z,30.30
2022-08-03T01:47:02.919Z,30.20
2022-08-03T01:49:38.726Z,30.20
2022-08-03T01:52:07.448Z,30.20
2022-08-03T01:54:44.046Z,30.20
2022-08-03T01:57:13.899Z,30.20
2022-08-03T01:59:46.885Z,30.20
2022-08-03T02:02:32.628Z,30.10
2022-08-03T02:05:03.444Z,30.10
2022-08-03T02:07:33.070Z,30.10
2022-08-03T02:10:02.969Z,30.10
2022-08-03T02:12:32.531Z,30.10
2022-08-03T02:15:02.393Z,30.00
2022-08-03T02:17:39.938Z,30.00
2022-08-03T02:20:10.929Z,30.00
2022-08-03T02:22:41.269Z,30.00
2022-08-03T02:25:15.748Z,29.90
2022-08-03T02:27:52.472Z,29.90
2022-08-03T02:30:20.797Z,29.90
2022-08-03T02:32:57.897Z,29.90
2022-08-03T02:35:29.285Z,29.80
2022-08-03T02:38:00.872Z,29.80
2022-08-03T02:40:29.652Z,29.80
2022-08-03T02:43:00.552Z,29.80
2022-08-03T02:45:28.788Z,29.80
2022-08-03T02:48:00.946Z,29.80
2022-08-03T02:50:30.409Z,29.70
2022-08-03T02:52:59.734Z,29.70
2022-08-03T02:55:28.606Z,29.70
2022-08-03T02:57:57.405Z,29.70
2022-08-03T03:00:31.624Z,29.70
2022-08-03T03:03:00.311Z,29.70
2022-08-03T03:05:52.602Z,29.70
2022-08-03T03:08:20.792Z,29.70
2022-08-03T03:10:56.072Z,29.60
2022-08-03T03:13:23.795Z,29.60
2022-08-03T03:15:52.680Z,29.60
2022-08-03T03:18:22.741Z,29.70
2022-08-03T03:20:58.672Z,29.60
2022-08-03T03:23:27.767Z,29.60
2022-08-03T03:25:56.489Z,29.50
2022-08-03T03:28:25.068Z,29.60
2022-08-03T03:30:53.444Z,29.50
2022-08-03T03:33:22.618Z,29.50
2022-08-03T03:35:51.685Z,29.40
2022-08-03T03:38:19.967Z,29.50
2022-08-03T03:40:47.598Z,29.40
2022-08-03T03:43:14.822Z,29.40
2022-08-03T03:45:44.778Z,29.30
2022-08-03T03:48:11.895Z,29.30
2022-08-03T03:50:41.896Z,29.30
2022-08-03T03:53:11.257Z,29.30
2022-08-03T03:55:59.456Z,29.30
2022-08-03T03:58:29.586Z,29.20
2022-08-03T04:00:57.035Z,29.30
2022-08-03T04:03:25.482Z,29.30
2022-08-03T04:06:11.058Z,29.30
2022-08-03T04:08:56.707Z,29.20
2022-08-03T04:11:31.977Z,29.20
2022-08-03T04:14:16.250Z,29.20
2022-08-03T04:16:49.296Z,29.20
2022-08-03T04:19:27.031Z,29.20
2022-08-03T04:21:59.269Z,29.10
2022-08-03T04:24:33.935Z,29.10
2022-08-03T04:27:04.996Z,29.10
2022-08-03T04:29:35.075Z,29.10
2022-08-03T04:32:07.374Z,29.10
2022-08-03T04:34:34.823Z,29.10
2022-08-03T04:37:05.931Z,29.10
2022-08-03T04:39:33.641Z,29.10
2022-08-03T04:42:08.761Z,29.10
2022-08-03T04:44:54.739Z,29.10
2022-08-03T04:47:25.478Z,29.10
2022-08-03T04:49:53.055Z,29.10
2022-08-03T04:52:20.182Z,29.10
2022-08-03T04:54:50.675Z,29.10
2022-08-03T04:57:22.791Z,29.00
2022-08-03T05:00:02.538Z,29.10
2022-08-03T05:02:32.256Z,29.10
2022-08-03T05:05:00.039Z,29.00
2022-08-03T05:07:34.076Z,29.00
2022-08-03T05:10:15.147Z,29.10
2022-08-03T05:12:45.372Z,29.00
2022-08-03T05:15:13.047Z,29.00
2022-08-03T05:17:40.467Z,29.10
2022-08-03T05:20:08.119Z,29.00
2022-08-03T05:22:35.243Z,29.00
2022-08-03T05:25:02.940Z,29.10
2022-08-03T05:27:32.856Z,29.00
2022-08-03T05:30:31.109Z,29.10
2022-08-03T05:32:47.031Z,29.10
2022-08-03T05:35:56.156Z,29.10
2022-08-03T05:38:03.354Z,29.10
2022-08-03T05:40:30.857Z,29.10
2022-08-03T05:42:58.483Z,29.10
2022-08-03T05:45:28.424Z,29.10
2022-08-03T05:47:55.933Z,29.10
2022-08-03T05:50:23.371Z,29.10
2022-08-03T05:52:50.630Z,29.10
2022-08-03T05:55:19.058Z,29.20
2022-08-03T05:57:47.388Z,29.20
2022-08-03T06:00:17.226Z,29.20
2022-08-03T06:02:46.792Z,29.20
2022-08-03T06:05:13.911Z,29.20
2022-08-03T06:07:41.083Z,29.20
2022-08-03T06:10:35.712Z,29.20
2022-08-03T06:12:55.983Z,29.30
2022-08-03T06:15:23.183Z,29.30
2022-08-03T06:17:51.207Z,29.30
2022-08-03T06:20:19.853Z,29.30
2022-08-03T06:22:51.393Z,29.30
2022-08-03T06:25:27.629Z,29.30
2022-08-03T06:27:54.702Z,29.40
2022-08-03T06:30:21.755Z,29.40
2022-08-03T06:32:51.695Z,29.40
2022-08-03T06:35:20.039Z,29.40
2022-08-03T06:37:49.146Z,29.40
2022-08-03T06:40:24.556Z,29.50
2022-08-03T06:42:51.778Z,29.50
2022-08-03T06:45:18.879Z,29.50
2022-08-03T06:47:45.968Z,29.50
2022-08-03T06:50:17.141Z,29.50
2022-08-03T06:52:47.799Z,29.50
2022-08-03T06:55:14.919Z,29.50
2022-08-03T06:57:42.062Z,29.60
2022-08-03T07:00:12.907Z,29.60
2022-08-03T07:02:40.224Z,29.60
2022-08-03T07:05:08.994Z,29.70
2022-08-03T07:07:36.304Z,29.60
2022-08-03T07:10:05.390Z,29.60
2022-08-03T07:12:33.925Z,29.70
2022-08-03T07:15:03.311Z,29.70
2022-08-03T07:17:33.976Z,29.70
2022-08-03T07:20:03.587Z,29.70
2022-08-03T07:22:30.785Z,29.70
2022-08-03T07:24:58.685Z,29.80
2022-08-03T07:27:27.086Z,29.80
2022-08-03T07:29:55.279Z,29.80
2022-08-03T07:32:22.500Z,29.90
2022-08-03T07:34:49.667Z,29.90
2022-08-03T07:37:16.759Z,29.90
2022-08-03T07:39:43.929Z,29.90
2022-08-03T07:42:11.059Z,29.90
2022-08-03T07:44:39.365Z,29.90
2022-08-03T07:47:06.613Z,29.90
2022-08-03T07:49:33.683Z,29.90
2022-08-03T07:52:19.413Z,29.90
2022-08-03T07:54:46.529Z,29.90
2022-08-03T07:57:13.608Z,30.00
2022-08-03T07:59:57.214Z,30.00
2022-08-03T08:02:27.784Z,30.00
2022-08-03T08:04:55.065Z,30.00
2022-08-03T08:07:22.236Z,30.00
2022-08-03T08:09:49.312Z,30.00
2022-08-03T08:12:16.725Z,30.00
2022-08-03T08:14:46.686Z,30.00
2022-08-03T08:17:14.258Z,30.10
2022-08-03T08:19:51.240Z,30.10
2022-08-03T08:22:28.742Z,30.10
2022-08-03T08:24:59.360Z,30.10
2022-08-03T08:27:26.619Z,30.10
2022-08-03T08:29:55.430Z,30.20
2022-08-03T08:32:25.968Z,30.20
2022-08-03T08:34:53.336Z,30.20
2022-08-03T08:37:20.399Z,30.30
2022-08-03T08:39:47.600Z,30.20
2022-08-03T08:42:15.900Z,30.30
2022-08-03T08:44:43.058Z,30.30
2022-08-03T08:47:10.545Z,30.30
2022-08-03T08:49:40.106Z,30.30
2022-08-03T08:52:25.321Z,30.30
2022-08-03T08:55:00.654Z,30.30
2022-08-03T08:57:43.545Z,30.30
2022-08-03T09:00:15.251Z,30.40
2022-08-03T09:02:46.495Z,30.40
2022-08-03T09:05:31.499Z,30.40
2022-08-03T09:08:07.480Z,30.40
2022-08-03T09:10:34.874Z,30.40
2022-08-03T09:13:02.211Z,30.40
2022-08-03T09:15:32.516Z,30.40
2022-08-03T09:18:00.988Z,30.50
2022-08-03T09:20:34.497Z,30.50
2022-08-03T09:23:18.986Z,30.50
2022-08-03T09:26:00.074Z,30.50
2022-08-03T09:29:00.764Z,30.50
2022-08-03T09:31:43.026Z,30.60
2022-08-03T09:34:13.343Z,30.60
2022-08-03T09:36:45.893Z,30.60
2022-08-03T09:39:15.497Z,30.50
2022-08-03T09:42:09.604Z,30.50
2022-08-03T09:44:38.468Z,30.60
2022-08-03T09:47:06.361Z,30.60
2022-08-03T09:49:33.698Z,30.60
2022-08-03T09:52:37.774Z,30.60
2022-08-03T09:56:34.378Z,30.70
2022-08-03T09:58:11.009Z,30.70
2022-08-03T10:01:07.840Z,30.70
2022-08-03T10:04:04.203Z,30.70
2022-08-03T10:06:32.241Z,30.70
2022-08-03T10:09:09.176Z,30.80
2022-08-03T10:11:41.224Z,30.80
2022-08-03T10:14:11.156Z,30.80
2022-08-03T10:16:39.980Z,30.90
2022-08-03T10:19:09.209Z,30.90
2022-08-03T10:21:39.243Z,30.90
2022-08-03T10:24:10.852Z,30.90
2022-08-03T10:26:49.478Z,31.00
2022-08-03T10:29:27.984Z,31.00
2022-08-03T10:31:58.902Z,31.00
2022-08-03T10:34:29.110Z,31.00
2022-08-03T10:37:00.111Z,31.00
2022-08-03T10:39:30.783Z,31.00
2022-08-03T10:42:02.921Z,31.00
2022-08-03T10:44:37.489Z,31.00
2022-08-03T10:47:05.203Z,31.00
2022-08-03T10:49:35.327Z,31.10
2022-08-03T10:52:06.599Z,31.10
2022-08-03T10:55:10.837Z,31.10
2022-08-03T10:57:58.905Z,31.20
2022-08-03T11:00:28.240Z,31.20
2022-08-03T11:03:14.699Z,31.20
2022-08-03T11:05:49.012Z,31.20
2022-08-03T11:08:32.053Z,31.20
2022-08-03T11:11:23.559Z,31.20
2022-08-03T11:14:21.317Z,31.20
2022-08-03T11:16:52.437Z,31.20
2022-08-03T11:19:24.167Z,31.20
2022-08-03T11:21:58.122Z,31.20
2022-08-03T11:24:37.684Z,31.20
2022-08-03T11:27:17.126Z,31.30
2022-08-03T11:30:09.449Z,31.30
2022-08-03T11:32:46.672Z,31.40
2022-08-03T11:35:24.788Z,31.40
2022-08-03T11:38:03.605Z,31.40
2022-08-03T11:41:04.547Z,31.40
2022-08-03T11:43:32.004Z,31.40
2022-08-03T11:46:04.373Z,31.40
2022-08-03T11:48:45.125Z,31.40
2022-08-03T11:51:30.989Z,31.40
2022-08-03T11:54:00.179Z,31.50
2022-08-03T11:56:28.084Z,31.50
2022-08-03T11:59:18.608Z,31.60
2022-08-03T12:01:46.075Z,31.60
2022-08-03T12:04:13.102Z,31.70
2022-08-03T12:06:55.252Z,31.70
2022-08-03T12:09:22.621Z,31.70
2022-08-03T12:11:59.994Z,31.70
2022-08-03T12:14:50.918Z,31.70
2022-08-03T12:17:17.396Z,31.70
2022-08-03T12:19:45.300Z,31.80
2022-08-03T12:22:12.478Z,31.80
2022-08-03T12:24:43.743Z,31.80
2022-08-03T12:27:14.099Z,31.80
2022-08-03T12:29:41.197Z,31.80
2022-08-03T12:32:14.961Z,31.90
2022-08-03T12:34:47.503Z,31.90
2022-08-03T12:37:20.247Z,31.90
2022-08-03T12:40:01.722Z,31.90
2022-08-03T12:42:36.673Z,32.00
2022-08-03T12:45:23.990Z,32.00
2022-08-03T12:48:00.087Z,32.10
2022-08-03T12:50:33.526Z,32.10
2022-08-03T12:53:02.577Z,32.10
2022-08-03T12:55:56.575Z,32.10
2022-08-03T12:58:33.789Z,32.20
2022-08-03T13:01:05.132Z,32.20
2022-08-03T13:03:50.321Z,32.20
2022-08-03T13:06:23.003Z,32.30
2022-08-03T13:09:01.454Z,32.20
2022-08-03T13:11:55.808Z,32.30
2022-08-03T13:14:19.488Z,32.30
2022-08-03T13:16:51.112Z,32.30
2022-08-03T13:19:18.260Z,32.30
2022-08-03T13:22:04.422Z,32.40
2022-08-03T13:24:33.167Z,32.40
2022-08-03T13:27:22.512Z,32.40
2022-08-03T13:29:50.714Z,32.50
2022-08-03T13:32:17.733Z,32.50
2022-08-03T13:34:44.821Z,32.60
2022-08-03T13:37:12.345Z,32.60
2022-08-03T13:39:59.923Z,32.70
2022-08-03T13:42:27.551Z,32.70
2022-08-03T13:44:56.970Z,32.80
2022-08-03T13:47:24.127Z,32.90
2022-08-03T13:49:59.525Z,32.90
2022-08-03T13:52:36.184Z,33.00
2022-08-03T13:55:05.627Z,33.10
2022-08-03T13:58:05.098Z,33.10
2022-08-03T14:00:27.093Z,33.20
2022-08-03T14:03:10.780Z,33.20
2022-08-03T14:05:40.183Z,33.30
2022-08-03T14:08:08.207Z,33.30
2022-08-03T14:10:37.724Z,33.40
2022-08-03T14:13:05.095Z,33.40
2022-08-03T14:15:32.372Z,33.50
2022-08-03T14:18:07.301Z,33.50
2022-08-03T14:20:50.268Z,33.50
2022-08-03T14:23:21.471Z,33.60
2022-08-03T14:25:50.213Z,33.60
2022-08-03T14:28:23.888Z,33.70
2022-08-03T14:30:52.326Z,33.80
2022-08-03T14:33:19.895Z,33.80
2022-08-03T14:35:47.407Z,33.80
2022-08-03T14:38:14.883Z,34.00
2022-08-03T14:40:42.143Z,34.00
2022-08-03T14:43:09.284Z,34.10
2022-08-03T14:45:36.402Z,34.20
2022-08-03T14:50:28.714Z,34.30
2022-08-03T14:50:55.422Z,34.40
2022-08-03T14:53:23.239Z,34.50
2022-08-03T14:55:51.864Z,34.60
2022-08-03T14:58:21.107Z,34.80
2022-08-03T15:00:49.390Z,34.90
2022-08-03T15:03:17.394Z,35.00
2022-08-03T15:05:44.912Z,35.10
2022-08-03T15:08:12.223Z,35.20
2022-08-03T15:10:44.050Z,35.40
2022-08-03T15:13:15.388Z,35.40
2022-08-03T15:15:42.850Z,35.60
2022-08-03T15:18:10.028Z,35.70
2022-08-03T15:20:44.475Z,35.90
2022-08-03T15:23:13.369Z,36.20
2022-08-03T15:26:28.360Z,36.60
2022-08-03T15:28:27.594Z,37.00
2022-08-03T15:30:54.712Z,37.50
2022-08-03T15:33:21.927Z,37.90
2022-08-03T15:35:49.860Z,38.20
2022-08-03T15:38:17.138Z,38.60
2022-08-03T15:40:44.366Z,38.90
2022-08-03T15:43:11.779Z,39.10
2022-08-03T15:45:40.537Z,39.30
2022-08-03T15:48:11.839Z,39.50
2022-08-03T15:50:39.235Z,39.60
2022-08-03T15:53:06.251Z,39.80
2022-08-03T15:55:33.716Z,39.90
2022-08-03T15:59:09.944Z,40.00
2022-08-03T16:00:47.887Z,40.20
2022-08-03T16:03:14.971Z,40.40
2022-08-03T16:05:42.048Z,40.50
2022-08-03T16:08:13.571Z,40.70
2022-08-03T16:10:41.117Z,40.90
2022-08-03T16:13:08.523Z,40.80
2022-08-03T16:15:38.450Z,40.70
2022-08-03T16:18:08.803Z,40.50
2022-08-03T16:20:35.840Z,40.30
2022-08-03T16:23:10.621Z,40.10
2022-08-03T16:25:44.329Z,39.80
2022-08-03T16:28:16.851Z,39.50
2022-08-03T16:30:45.551Z,39.30
2022-08-03T16:33:16.605Z,39.10
2022-08-03T16:35:46.493Z,39.00
2022-08-03T16:38:19.173Z,38.90
2022-08-03T16:40:51.569Z,39.20
2022-08-03T16:43:20.458Z,39.50
2022-08-03T16:45:47.914Z,40.00
2022-08-03T16:48:15.950Z,40.40
2022-08-03T16:50:43.195Z,40.80
2022-08-03T16:53:15.636Z,41.10
2022-08-03T16:55:53.221Z,41.40
2022-08-03T16:58:41.737Z,41.70
2022-08-03T17:01:22.283Z,41.90
2022-08-03T17:04:02.282Z,42.00
2022-08-03T17:06:35.483Z,42.10
2022-08-03T17:09:15.247Z,42.00
2022-08-03T17:11:47.608Z,42.00
2022-08-03T17:14:29.434Z,42.00
2022-08-03T17:17:04.652Z,42.10
2022-08-03T17:19:39.427Z,42.00
2022-08-03T17:22:15.787Z,41.90
2022-08-03T17:24:50.628Z,41.70
2022-08-03T17:28:50.746Z,41.80
2022-08-03T17:30:19.016Z,41.90
2022-08-03T17:32:57.016Z,42.00
2022-08-03T17:35:36.689Z,42.10
2022-08-03T17:38:10.518Z,42.00
2022-08-03T17:40:48.243Z,41.80
2022-08-03T17:44:13.112Z,41.40
2022-08-03T17:46:10.934Z,41.10
2022-08-03T17:48:41.443Z,40.70
2022-08-03T17:51:33.717Z,40.30
2022-08-03T17:54:04.916Z,40.00
2022-08-03T17:56:50.959Z,39.70
2022-08-03T17:59:51.090Z,39.40
2022-08-03T18:03:16.349Z,39.20
2022-08-03T18:06:11.719Z,39.00
2022-08-03T18:08:54.448Z,38.70
2022-08-03T18:11:24.192Z,38.50
2022-08-03T18:14:23.789Z,38.40
2022-08-03T18:17:01.357Z,38.20
2022-08-03T18:22:20.663Z,38.00
2022-08-03T18:24:51.381Z,37.80
2022-08-03T18:27:20.891Z,37.70
2022-08-03T18:29:51.468Z,37.60
2022-08-03T18:32:18.863Z,37.50
2022-08-03T18:34:53.042Z,37.30
2022-08-03T18:37:25.169Z,37.20
2022-08-03T18:39:55.971Z,37.10
2022-08-03T18:42:26.435Z,37.00
2022-08-03T18:44:56.007Z,36.90
2022-08-03T18:47:57.060Z,36.80
2022-08-03T18:50:48.272Z,36.70
2022-08-03T18:54:06.262Z,36.50
2022-08-03T18:56:42.530Z,36.50
2022-08-03T18:59:56.166Z,36.40
2022-08-03T19:02:23.903Z,36.30
2022-08-03T19:04:54.330Z,36.20
2022-08-03T19:07:28.798Z,36.10
2022-08-03T19:10:07.616Z,36.00
2022-08-03T19:12:52.056Z,35.90
2022-08-03T19:15:21.251Z,35.80
2022-08-03T19:18:10.410Z,35.70
2022-08-03T19:20:38.287Z,35.70
2022-08-03T19:23:06.677Z,35.70
2022-08-03T19:25:38.651Z,35.60
2022-08-03T19:28:08.698Z,35.50
2022-08-03T19:30:39.152Z,35.50
2022-08-03T19:33:14.608Z,35.40
2022-08-03T19:35:51.354Z,35.40
2022-08-03T19:38:27.388Z,35.30
2022-08-03T19:40:59.591Z,35.20
2022-08-03T19:43:57.698Z,35.20
2022-08-03T19:46:30.084Z,35.10
2022-08-03T19:49:15.137Z,35.10
2022-08-03T19:52:00.998Z,35.00
2022-08-03T19:55:00.439Z,35.00
2022-08-03T19:57:29.329Z,34.90
2022-08-03T19:59:57.329Z,34.90
2022-08-03T20:02:26.327Z,34.90
2022-08-03T20:04:57.096Z,34.80
2022-08-03T20:07:25.945Z,34.80
2022-08-03T20:09:56.559Z,34.80
2022-08-03T20:12:28.229Z,34.70
2022-08-03T20:14:58.070Z,34.70
2022-08-03T20:17:54.065Z,34.70
2022-08-03T20:20:14.277Z,34.70
2022-08-03T20:25:38.201Z,34.60
2022-08-03T20:28:26.618Z,34.50
2022-08-03T20:30:54.136Z,34.50
2022-08-03T20:33:34.602Z,34.40
2022-08-03T20:36:08.379Z,34.40
2022-08-03T20:38:43.530Z,34.40
2022-08-03T20:41:14.927Z,34.30
2022-08-03T20:43:42.332Z,34.30
2022-08-03T20:46:31.701Z,34.20
2022-08-03T20:48:59.703Z,34.20
2022-08-03T20:51:50.124Z,34.10
2022-08-03T20:54:22.696Z,34.10
2022-08-03T20:56:59.527Z,34.00
2022-08-03T20:59:38.569Z,34.00
2022-08-03T21:02:19.240Z,34.00
2022-08-03T21:04:47.854Z,34.00
2022-08-03T21:07:22.926Z,33.90
2022-08-03T21:09:59.347Z,33.90
2022-08-03T21:12:45.215Z,33.90
2022-08-03T21:13:03.879Z,34.60
2022-08-03T21:13:05.313Z,38.10
2022-08-03T21:16:02.447Z,33.80
2022-08-03T21:18:13.061Z,33.80
2022-08-03T21:20:43.677Z,33.80
2022-08-03T21:23:12.875Z,33.70
2022-08-03T21:26:01.945Z,33.70
2022-08-03T21:28:29.869Z,33.70
2022-08-03T21:30:58.668Z,33.70
2022-08-03T21:33:27.873Z,33.60
2022-08-03T21:35:55.082Z,33.60
2022-08-03T21:38:29.935Z,33.50
2022-08-03T21:40:57.547Z,33.50
2022-08-03T21:43:24.663Z,33.50
2022-08-03T21:46:01.771Z,33.40
2022-08-03T21:48:35.752Z,33.40
2022-08-03T21:51:04.108Z,33.40
2022-08-03T21:54:03.373Z,33.30
2022-08-03T21:56:21.947Z,33.30
2022-08-03T21:58:56.120Z,33.30
2022-08-03T22:01:26.402Z,33.20
2022-08-03T22:03:55.081Z,33.20
2022-08-03T22:06:27.227Z,33.20
2022-08-03T22:08:54.820Z,33.10
2022-08-03T22:11:22.115Z,33.00
2022-08-03T22:13:49.338Z,33.00
2022-08-03T22:16:16.749Z,32.90
2022-08-03T22:18:45.862Z,32.90
2022-08-03T22:21:15.273Z,32.80
2022-08-03T22:23:46.972Z,32.90
2022-08-03T22:26:34.932Z,32.90
2022-08-03T22:29:07.421Z,32.80
2022-08-03T22:31:58.500Z,32.80
2022-08-03T22:34:26.674Z,32.80
2022-08-03T22:37:00.147Z,32.70
2022-08-03T22:39:29.062Z,32.70
2022-08-03T22:41:59.294Z,32.70
2022-08-03T22:44:27.383Z,32.70
2022-08-03T22:46:55.500Z,32.60
2022-08-03T22:49:22.760Z,32.70
2022-08-03T22:51:52.719Z,32.60
2022-08-03T22:54:19.892Z,32.60
2022-08-03T22:56:47.676Z,32.60
2022-08-03T22:59:40.313Z,32.60
2022-08-03T23:02:15.057Z,32.50
2022-08-03T23:04:51.615Z,32.50
2022-08-03T23:07:35.431Z,32.50
2022-08-03T23:10:05.959Z,32.50
2022-08-03T23:12:36.832Z,32.40
2022-08-03T23:15:08.803Z,32.40
2022-08-03T23:17:57.911Z,32.40
2022-08-03T23:20:27.049Z,32.40
2022-08-03T23:23:00.004Z,32.30
2022-08-03T23:25:27.106Z,32.30
2022-08-03T23:28:05.199Z,32.30
2022-08-03T23:30:34.868Z,32.30
2022-08-03T23:33:04.070Z,32.30
2022-08-03T23:36:20.178Z,32.30
2022-08-03T23:38:37.319Z,32.20
2022-08-03T23:41:08.175Z,32.20
2022-08-03T23:43:51.503Z,32.10
2022-08-03T23:46:22.494Z,32.10
2022-08-03T23:48:50.833Z,32.10
2022-08-03T23:51:49.463Z,32.10
2022-08-03T23:54:31.819Z,32.10
2022-08-03T23:57:11.895Z,32.10
